createdAt,value
2022-10-28T00:01:30.568Z,14.10
2022-10-28T00:04:00.102Z,14.00
2022-10-28T00:06:30.712Z,14.00
2022-10-28T00:09:01.086Z,14.00
2022-10-28T00:11:31.974Z,14.00
2022-10-28T00:14:01.876Z,14.00
2022-10-28T00:16:34.884Z,14.00
2022-10-28T00:19:03.772Z,13.90
2022-10-28T00:21:34.439Z,13.90
2022-10-28T00:24:01.640Z,14.00
2022-10-28T00:26:33.646Z,14.00
2022-10-28T00:29:06.520Z,14.00
2022-10-28T00:31:36.434Z,14.00
2022-10-28T00:34:07.019Z,14.10
2022-10-28T00:36:40.266Z,14.10
2022-10-28T00:39:19.155Z,14.20
2022-10-28T00:41:57.845Z,14.10
2022-10-28T00:44:42.773Z,14.10
2022-10-28T00:47:25.172Z,14.10
2022-10-28T00:49:57.346Z,14.10
2022-10-28T00:52:29.846Z,14.10
2022-10-28T00:55:01.665Z,14.00
2022-10-28T00:57:33.730Z,14.00
2022-10-28T01:00:02.856Z,14.00
2022-10-28T01:02:34.410Z,14.00
2022-10-28T01:05:01.833Z,14.00
2022-10-28T01:07:30.084Z,14.00
2022-10-28T01:09:57.462Z,14.00
2022-10-28T01:12:37.854Z,14.00
2022-10-28T01:15:15.855Z,14.00
2022-10-28T01:17:58.085Z,14.00
2022-10-28T01:20:40.913Z,13.90
2022-10-28T01:23:31.169Z,13.90
2022-10-28T01:26:04.058Z,13.90
2022-10-28T01:29:08.453Z,13.90
2022-10-28T01:31:52.128Z,14.00
2022-10-28T01:34:31.597Z,14.00
2022-10-28T01:37:12.871Z,14.00
2022-10-28T01:40:06.148Z,14.00
2022-10-28T01:42:39.668Z,14.00
2022-10-28T01:45:26.883Z,14.00
2022-10-28T01:48:10.113Z,14.00
2022-10-28T01:50:48.762Z,14.00
2022-10-28T01:53:23.705Z,13.90
2022-10-28T01:55:58.749Z,13.90
2022-10-28T01:58:29.937Z,13.90
2022-10-28T02:01:00.520Z,13.90
2022-10-28T02:03:28.454Z,13.90
2022-10-28T02:06:03.599Z,14.00
2022-10-28T02:08:44.063Z,14.00
2022-10-28T02:11:30.086Z,14.00
2022-10-28T02:14:11.393Z,14.00
2022-10-28T02:16:48.296Z,14.00
2022-10-28T02:19:43.133Z,14.00
2022-10-28T02:22:22.217Z,14.00
2022-10-28T02:25:02.000Z,14.00
2022-10-28T02:27:32.483Z,14.00
2022-10-28T02:30:14.011Z,14.00
2022-10-28T02:32:46.968Z,14.00
2022-10-28T02:35:22.802Z,14.00
2022-10-28T02:37:51.647Z,14.00
2022-10-28T02:40:26.569Z,14.00
2022-10-28T02:43:00.148Z,14.00
2022-10-28T02:45:51.807Z,14.00
2022-10-28T02:48:26.185Z,14.00
2022-10-28T02:51:11.764Z,14.00
2022-10-28T02:54:04.517Z,14.00
2022-10-28T02:56:37.339Z,14.10
2022-10-28T02:59:09.760Z,14.00
2022-10-28T03:01:37.402Z,14.10
2022-10-28T03:04:05.167Z,14.10
2022-10-28T03:06:34.496Z,14.10
2022-10-28T03:09:06.477Z,14.10
2022-10-28T03:11:33.731Z,14.10
2022-10-28T03:14:01.197Z,14.10
2022-10-28T03:16:28.475Z,14.10
2022-10-28T03:18:58.534Z,14.20
2022-10-28T03:21:25.830Z,14.20
2022-10-28T03:23:53.384Z,14.20
2022-10-28T03:26:20.632Z,14.20
2022-10-28T03:28:48.052Z,14.20
2022-10-28T03:31:15.322Z,14.10
2022-10-28T03:33:45.119Z,14.10
2022-10-28T03:36:12.203Z,14.10
2022-10-28T03:38:42.296Z,14.10
2022-10-28T03:41:09.921Z,14.10
2022-10-28T03:43:37.136Z,14.10
2022-10-28T03:46:06.516Z,14.10
2022-10-28T03:48:34.077Z,14.10
2022-10-28T03:51:01.201Z,14.00
2022-10-28T03:53:31.197Z,14.10
2022-10-28T03:56:02.906Z,14.00
2022-10-28T03:58:30.592Z,14.00
2022-10-28T04:00:57.752Z,14.00
2022-10-28T04:03:27.427Z,13.90
2022-10-28T04:05:56.814Z,13.90
2022-10-28T04:08:24.352Z,13.90
2022-10-28T04:10:51.549Z,13.90
2022-10-28T04:13:21.359Z,13.90
2022-10-28T04:15:50.655Z,14.00
2022-10-28T04:18:17.951Z,14.00
2022-10-28T04:20:46.323Z,14.00
2022-10-28T04:23:18.213Z,14.10
2022-10-28T04:25:45.713Z,14.10
2022-10-28T04:28:13.185Z,14.10
2022-10-28T04:30:42.463Z,14.10
2022-10-28T04:33:12.581Z,14.10
2022-10-28T04:35:40.233Z,14.00
2022-10-28T04:38:07.475Z,14.00
2022-10-28T04:40:34.804Z,14.00
2022-10-28T04:43:02.135Z,14.00
2022-10-28T04:45:29.266Z,14.00
2022-10-28T04:47:58.039Z,14.00
2022-10-28T04:50:25.284Z,14.00
2022-10-28T04:52:52.857Z,13.90
2022-10-28T04:55:20.846Z,13.80
2022-10-28T04:58:01.242Z,13.80
2022-10-28T05:00:31.094Z,13.80
2022-10-28T05:03:01.650Z,13.80
2022-10-28T05:05:28.832Z,13.80
2022-10-28T05:07:56.546Z,13.80
2022-10-28T05:10:24.040Z,13.80
2022-10-28T05:12:51.267Z,13.70
2022-10-28T05:15:18.466Z,13.80
2022-10-28T05:17:47.314Z,13.70
2022-10-28T05:20:17.441Z,13.70
2022-10-28T05:22:52.884Z,13.70
2022-10-28T05:25:21.951Z,13.80
2022-10-28T05:27:51.979Z,13.70
2022-10-28T05:30:19.424Z,13.70
2022-10-28T05:32:51.552Z,13.70
2022-10-28T05:35:21.624Z,13.60
2022-10-28T05:37:49.431Z,13.60
2022-10-28T05:40:16.485Z,13.60
2022-10-28T05:42:44.038Z,13.60
2022-10-28T05:45:12.164Z,13.70
2022-10-28T05:47:47.104Z,13.80
2022-10-28T05:50:19.132Z,13.90
2022-10-28T05:52:47.590Z,14.00
2022-10-28T05:55:15.606Z,14.10
2022-10-28T05:57:43.376Z,14.20
2022-10-28T06:00:11.316Z,14.40
2022-10-28T06:02:42.004Z,14.50
2022-10-28T06:05:12.098Z,14.80
2022-10-28T06:07:42.337Z,15.10
2022-10-28T06:10:11.056Z,15.40
2022-10-28T06:12:38.101Z,15.90
2022-10-28T06:15:05.610Z,16.60
2022-10-28T06:17:33.752Z,17.40
2022-10-28T06:20:01.887Z,18.10
2022-10-28T06:22:31.586Z,18.50
2022-10-28T06:25:00.958Z,19.00
2022-10-28T06:27:33.891Z,19.50
2022-10-28T06:30:01.047Z,20.60
2022-10-28T06:32:28.398Z,22.00
2022-10-28T06:34:55.634Z,22.50
2022-10-28T06:37:22.873Z,22.20
2022-10-28T06:39:49.922Z,23.10
2022-10-28T06:42:17.852Z,24.20
2022-10-28T06:44:49.558Z,24.50
2022-10-28T06:47:21.410Z,24.50
2022-10-28T06:49:50.817Z,24.30
2022-10-28T06:52:20.570Z,24.10
2022-10-28T06:54:47.852Z,24.50
2022-10-28T06:57:17.770Z,25.90
2022-10-28T06:59:44.948Z,26.00
2022-10-28T07:02:19.919Z,25.00
2022-10-28T07:04:47.362Z,23.80
2022-10-28T07:07:19.606Z,22.90
2022-10-28T07:09:47.101Z,22.00
2022-10-28T07:12:14.309Z,22.00
2022-10-28T07:14:41.652Z,22.00
2022-10-28T07:17:09.005Z,21.50
2022-10-28T07:19:36.284Z,21.10
2022-10-28T07:22:03.393Z,20.70
2022-10-28T07:24:33.599Z,20.40
2022-10-28T07:27:00.818Z,20.20
2022-10-28T07:29:30.762Z,19.80
2022-10-28T07:31:58.441Z,20.00
2022-10-28T07:34:27.352Z,20.30
2022-10-28T07:36:57.896Z,20.20
2022-10-28T07:39:27.913Z,20.00
2022-10-28T07:41:55.420Z,19.90
2022-10-28T07:44:22.721Z,20.10
2022-10-28T07:46:52.993Z,20.30
2022-10-28T07:49:25.847Z,21.10
2022-10-28T07:51:53.175Z,23.30
2022-10-28T07:54:20.472Z,24.00
2022-10-28T07:56:49.851Z,26.20
2022-10-28T07:59:17.688Z,29.50
2022-10-28T08:01:44.891Z,31.90
2022-10-28T08:04:12.454Z,33.80
2022-10-28T08:06:39.740Z,35.30
2022-10-28T08:09:07.040Z,36.10
2022-10-28T08:11:34.351Z,36.00
2022-10-28T08:14:02.671Z,36.00
2022-10-28T08:16:30.063Z,37.20
2022-10-28T08:18:57.439Z,37.70
2022-10-28T08:21:25.137Z,38.60
2022-10-28T08:23:55.840Z,40.00
2022-10-28T08:26:23.015Z,41.70
2022-10-28T08:28:53.197Z,42.90
2022-10-28T08:31:22.727Z,43.70
2022-10-28T08:33:50.033Z,44.40
2022-10-28T08:36:17.483Z,44.60
2022-10-28T08:38:47.263Z,42.90
2022-10-28T08:41:39.861Z,41.00
2022-10-28T08:44:16.004Z,40.30
2022-10-28T08:46:48.993Z,41.80
2022-10-28T08:49:22.077Z,43.00
2022-10-28T08:52:32.869Z,43.90
2022-10-28T08:55:06.607Z,45.00
2022-10-28T08:57:48.715Z,45.00
2022-10-28T09:00:23.515Z,45.40
2022-10-28T09:03:13.883Z,45.60
2022-10-28T09:05:49.385Z,45.50
2022-10-28T09:08:25.597Z,45.60
2022-10-28T09:11:06.067Z,46.00
2022-10-28T09:13:41.565Z,45.70
2022-10-28T09:16:33.794Z,45.60
2022-10-28T09:19:27.527Z,44.20
2022-10-28T09:22:22.868Z,43.40
2022-10-28T09:24:59.459Z,42.90
2022-10-28T09:28:17.955Z,42.70
2022-10-28T09:31:09.183Z,42.30
2022-10-28T09:34:03.291Z,41.20
2022-10-28T09:36:39.723Z,41.00
2022-10-28T09:39:17.757Z,40.50
2022-10-28T09:41:50.014Z,40.90
2022-10-28T09:44:44.160Z,41.30
2022-10-28T09:47:58.429Z,40.60
2022-10-28T09:50:30.490Z,40.00
2022-10-28T09:53:16.537Z,39.70
2022-10-28T09:55:44.013Z,38.80
2022-10-28T09:58:12.970Z,37.60
2022-10-28T10:00:40.925Z,36.70
2022-10-28T10:03:08.418Z,36.50
2022-10-28T10:05:43.550Z,37.00
2022-10-28T10:08:15.147Z,37.20
2022-10-28T10:10:56.536Z,36.80
2022-10-28T10:13:35.657Z,36.50
2022-10-28T10:16:17.735Z,35.50
2022-10-28T10:18:50.307Z,34.50
2022-10-28T10:21:41.473Z,32.60
2022-10-28T10:24:35.171Z,32.10
2022-10-28T10:27:10.649Z,30.90
2022-10-28T10:29:45.400Z,31.30
2022-10-28T10:32:18.364Z,31.20
2022-10-28T10:34:56.615Z,32.30
2022-10-28T10:37:27.921Z,32.50
2022-10-28T10:40:19.922Z,32.30
2022-10-28T10:43:09.583Z,33.10
2022-10-28T10:45:37.054Z,34.10
2022-10-28T10:48:15.544Z,34.80
2022-10-28T10:50:46.219Z,35.20
2022-10-28T10:53:25.362Z,35.10
2022-10-28T10:55:58.939Z,34.70
2022-10-28T10:58:30.017Z,34.20
2022-10-28T11:01:01.911Z,34.90
2022-10-28T11:03:38.773Z,35.40
2022-10-28T11:06:24.744Z,35.20
2022-10-28T11:09:01.638Z,34.50
2022-10-28T11:11:40.230Z,34.20
2022-10-28T11:14:10.579Z,33.20
2022-10-28T11:17:00.543Z,31.80
2022-10-28T11:19:35.099Z,29.50
2022-10-28T11:22:21.008Z,28.20
2022-10-28T11:25:19.584Z,27.50
2022-10-28T11:27:48.690Z,27.10
2022-10-28T11:30:26.223Z,26.70
2022-10-28T11:36:04.651Z,25.50
2022-10-28T11:39:15.339Z,25.00
2022-10-28T11:42:00.446Z,24.30
2022-10-28T11:47:28.424Z,23.40
2022-10-28T11:50:23.048Z,23.10
2022-10-28T11:53:15.431Z,22.90
2022-10-28T11:56:12.966Z,22.80
2022-10-28T11:58:58.210Z,22.70
2022-10-28T12:01:53.249Z,22.60
2022-10-28T12:04:27.142Z,22.60
2022-10-28T12:07:02.937Z,22.50
2022-10-28T12:09:48.950Z,22.40
2022-10-28T12:12:51.439Z,22.20
2022-10-28T12:15:40.247Z,22.20
2022-10-28T12:18:16.097Z,22.10
2022-10-28T12:20:58.000Z,22.10
2022-10-28T12:23:27.221Z,22.00
2022-10-28T12:25:57.766Z,22.10
2022-10-28T12:28:30.466Z,21.90
2022-10-28T12:30:58.603Z,21.80
2022-10-28T12:33:42.050Z,21.70
2022-10-28T12:36:09.766Z,21.60
2022-10-28T12:38:53.908Z,21.60
2022-10-28T12:42:02.452Z,21.50
2022-10-28T12:44:32.368Z,21.30
2022-10-28T12:47:43.263Z,21.30
2022-10-28T12:50:19.684Z,21.20
2022-10-28T12:53:05.527Z,21.10
2022-10-28T12:55:48.621Z,21.00
2022-10-28T12:58:24.155Z,21.00
2022-10-28T13:01:15.787Z,21.00
2022-10-28T13:03:43.531Z,21.00
2022-10-28T13:09:25.675Z,20.90
2022-10-28T13:12:18.307Z,20.90
2022-10-28T13:15:04.652Z,20.80
2022-10-28T13:18:03.666Z,20.80
2022-10-28T13:20:54.577Z,20.80
2022-10-28T13:23:24.963Z,20.70
2022-10-28T13:26:10.100Z,20.70
2022-10-28T13:28:46.504Z,20.70
2022-10-28T13:31:15.204Z,20.60
2022-10-28T13:33:59.319Z,20.60
2022-10-28T13:36:30.540Z,20.60
2022-10-28T13:39:06.168Z,20.50
2022-10-28T13:41:42.229Z,20.40
2022-10-28T13:44:25.780Z,20.30
2022-10-28T13:46:59.603Z,20.20
2022-10-28T13:49:30.722Z,20.20
2022-10-28T13:52:23.245Z,20.20
2022-10-28T13:54:54.795Z,20.10
2022-10-28T13:57:38.119Z,20.00
2022-10-28T14:02:59.097Z,19.90
2022-10-28T14:05:32.762Z,19.90
2022-10-28T14:08:07.111Z,19.90
2022-10-28T14:10:38.461Z,19.90
2022-10-28T14:13:21.647Z,19.90
2022-10-28T14:15:50.180Z,19.80
2022-10-28T14:21:05.560Z,19.70
2022-10-28T14:23:32.874Z,19.60
2022-10-28T14:26:03.298Z,19.50
2022-10-28T14:28:30.653Z,19.50
2022-10-28T14:31:10.036Z,19.40
2022-10-28T14:33:43.007Z,19.30
2022-10-28T14:36:19.261Z,19.30
2022-10-28T14:39:01.268Z,19.20
2022-10-28T14:41:47.745Z,19.10
2022-10-28T14:44:46.013Z,19.10
2022-10-28T14:47:42.584Z,19.10
2022-10-28T14:50:22.248Z,19.00
2022-10-28T14:52:54.717Z,19.00
2022-10-28T14:55:28.091Z,19.00
2022-10-28T14:58:22.245Z,18.90
2022-10-28T15:01:21.147Z,18.90
2022-10-28T15:04:02.452Z,18.80
2022-10-28T15:06:36.322Z,18.70
2022-10-28T15:09:06.048Z,18.60
2022-10-28T15:11:35.634Z,18.50
2022-10-28T15:14:26.273Z,18.50
2022-10-28T15:16:54.112Z,18.40
2022-10-28T15:19:24.430Z,18.30
2022-10-28T15:22:05.096Z,18.10
2022-10-28T15:24:32.985Z,18.10
2022-10-28T15:27:00.282Z,18.00
2022-10-28T15:29:28.006Z,17.90
2022-10-28T15:32:14.490Z,17.80
2022-10-28T15:34:42.573Z,17.80
2022-10-28T15:37:10.266Z,17.80
2022-10-28T15:39:38.943Z,17.70
2022-10-28T15:42:25.901Z,17.70
2022-10-28T15:44:56.336Z,17.60
2022-10-28T15:47:31.763Z,17.50
2022-10-28T15:50:17.638Z,17.40
2022-10-28T15:52:46.544Z,17.30
2022-10-28T15:55:23.726Z,17.20
2022-10-28T15:58:31.424Z,17.20
2022-10-28T16:01:01.468Z,17.10
2022-10-28T16:03:48.876Z,17.10
2022-10-28T16:06:25.151Z,17.00
2022-10-28T16:09:01.235Z,17.00
2022-10-28T16:11:30.516Z,17.00
2022-10-28T16:13:58.876Z,16.90
2022-10-28T16:16:32.020Z,16.90
2022-10-28T16:19:02.763Z,16.90
2022-10-28T16:21:31.639Z,16.80
2022-10-28T16:24:02.563Z,16.70
2022-10-28T16:26:32.053Z,16.70
2022-10-28T16:28:59.388Z,16.70
2022-10-28T16:31:29.389Z,16.80
2022-10-28T16:33:58.833Z,16.70
2022-10-28T16:36:26.332Z,16.70
2022-10-28T16:38:55.638Z,16.70
2022-10-28T16:41:24.212Z,16.60
2022-10-28T16:43:53.922Z,16.60
2022-10-28T16:46:23.791Z,16.60
2022-10-28T16:48:50.973Z,16.60
2022-10-28T16:51:20.805Z,16.60
2022-10-28T16:53:51.294Z,16.60
2022-10-28T16:56:18.765Z,16.50
2022-10-28T16:58:45.914Z,16.50
2022-10-28T17:01:17.738Z,16.50
2022-10-28T17:03:44.992Z,16.50
2022-10-28T17:06:12.408Z,16.50
2022-10-28T17:11:26.899Z,16.50
2022-10-28T17:13:54.335Z,16.50
2022-10-28T17:16:24.070Z,16.40
2022-10-28T17:18:51.349Z,16.30
2022-10-28T17:21:19.200Z,16.30
2022-10-28T17:23:46.191Z,16.30
2022-10-28T17:26:13.950Z,16.20
2022-10-28T17:28:40.918Z,16.20
2022-10-28T17:31:09.081Z,16.20
2022-10-28T17:33:36.908Z,16.10
2022-10-28T17:36:06.773Z,16.10
2022-10-28T17:38:34.076Z,16.10
2022-10-28T17:41:01.695Z,16.10
2022-10-28T17:43:29.194Z,16.10
2022-10-28T17:46:05.732Z,16.10
2022-10-28T17:48:34.379Z,16.10
2022-10-28T17:51:01.686Z,16.10
2022-10-28T17:53:31.610Z,16.20
2022-10-28T17:56:00.201Z,16.20
2022-10-28T17:58:28.402Z,16.20
2022-10-28T18:01:00.174Z,16.30
2022-10-28T18:03:30.683Z,16.40
2022-10-28T18:06:05.841Z,16.40
2022-10-28T18:08:37.146Z,16.50
2022-10-28T18:11:08.099Z,16.50
2022-10-28T18:13:40.615Z,16.50
2022-10-28T18:16:11.910Z,16.60
2022-10-28T18:18:42.488Z,16.60
2022-10-28T18:21:14.025Z,16.60
2022-10-28T18:23:41.490Z,16.50
2022-10-28T18:26:15.347Z,16.50
2022-10-28T18:28:45.298Z,16.50
2022-10-28T18:31:13.496Z,16.50
2022-10-28T18:33:42.355Z,16.50
2022-10-28T18:36:15.425Z,16.40
2022-10-28T18:38:42.878Z,16.40
2022-10-28T18:41:21.352Z,16.40
2022-10-28T18:43:52.307Z,16.40
2022-10-28T18:46:20.153Z,16.40
2022-10-28T18:48:47.260Z,16.40
2022-10-28T18:51:15.066Z,16.40
2022-10-28T18:53:44.609Z,16.30
2022-10-28T18:56:23.990Z,16.30
2022-10-28T18:58:51.817Z,16.30
2022-10-28T19:01:22.185Z,16.30
2022-10-28T19:03:57.777Z,16.30
2022-10-28T19:06:28.431Z,16.30
2022-10-28T19:08:58.135Z,16.30
2022-10-28T19:11:29.167Z,16.30
2022-10-28T19:13:58.072Z,16.30
2022-10-28T19:16:28.193Z,16.40
2022-10-28T19:18:58.455Z,16.40
2022-10-28T19:21:28.954Z,16.30
2022-10-28T19:23:59.351Z,16.40
2022-10-28T19:26:26.863Z,16.40
2022-10-28T19:28:56.895Z,16.40
2022-10-28T19:31:29.705Z,16.50
2022-10-28T19:33:57.239Z,16.50
2022-10-28T19:36:26.809Z,16.60
2022-10-28T19:38:57.701Z,16.60
2022-10-28T19:41:27.187Z,16.60
2022-10-28T19:44:01.288Z,16.60
2022-10-28T19:46:33.181Z,16.60
2022-10-28T19:49:02.657Z,16.60
2022-10-28T19:51:36.042Z,16.60
2022-10-28T19:54:04.500Z,16.60
2022-10-28T19:56:33.671Z,16.50
2022-10-28T19:59:02.466Z,16.50
2022-10-28T20:01:34.780Z,16.50
2022-10-28T20:04:09.357Z,16.50
2022-10-28T20:06:41.175Z,16.40
2022-10-28T20:09:10.914Z,16.40
2022-10-28T20:11:39.756Z,16.30
2022-10-28T20:14:09.327Z,16.40
2022-10-28T20:16:41.400Z,16.30
2022-10-28T20:19:09.320Z,16.20
2022-10-28T20:21:39.317Z,16.20
2022-10-28T20:24:07.937Z,16.20
2022-10-28T20:26:36.739Z,16.20
2022-10-28T20:29:04.244Z,16.30
2022-10-28T20:31:36.111Z,16.40
2022-10-28T20:34:04.227Z,16.60
2022-10-28T20:36:39.111Z,16.60
2022-10-28T20:39:15.846Z,16.70
2022-10-28T20:41:47.096Z,16.70
2022-10-28T20:44:17.567Z,16.70
2022-10-28T20:46:45.100Z,16.70
2022-10-28T20:49:12.376Z,16.60
2022-10-28T20:51:40.369Z,16.60
2022-10-28T20:54:07.646Z,16.50
2022-10-28T20:56:37.201Z,16.50
2022-10-28T20:59:07.335Z,16.40
2022-10-28T21:01:41.107Z,16.40
2022-10-28T21:04:10.415Z,16.40
2022-10-28T21:06:41.480Z,16.40
2022-10-28T21:09:11.023Z,16.50
2022-10-28T21:11:38.724Z,16.50
2022-10-28T21:14:06.014Z,16.50
2022-10-28T21:16:33.297Z,16.60
2022-10-28T21:19:00.851Z,16.70
2022-10-28T21:21:28.692Z,16.80
2022-10-28T21:23:59.609Z,16.90
2022-10-28T21:26:27.236Z,17.00
2022-10-28T21:28:54.241Z,17.00
2022-10-28T21:31:21.953Z,17.00
2022-10-28T21:33:51.756Z,17.00
2022-10-28T21:36:21.064Z,16.80
2022-10-28T21:38:48.139Z,16.80
2022-10-28T21:41:18.666Z,16.60
2022-10-28T21:43:49.837Z,16.60
2022-10-28T21:46:22.195Z,16.50
2022-10-28T21:48:49.405Z,16.50
2022-10-28T21:51:17.922Z,16.40
2022-10-28T21:53:47.634Z,16.40
2022-10-28T21:56:18.759Z,16.30
2022-10-28T21:58:48.619Z,16.30
2022-10-28T22:01:24.406Z,16.40
2022-10-28T22:03:55.321Z,16.40
2022-10-28T22:06:25.094Z,16.40
2022-10-28T22:08:58.476Z,16.50
2022-10-28T22:11:26.044Z,16.50
2022-10-28T22:14:01.831Z,16.60
2022-10-28T22:16:30.934Z,16.60
2022-10-28T22:18:59.455Z,16.60
2022-10-28T22:21:29.933Z,16.60
2022-10-28T22:23:57.675Z,16.70
2022-10-28T22:26:27.871Z,16.70
2022-10-28T22:28:56.453Z,16.70
2022-10-28T22:31:27.148Z,16.80
2022-10-28T22:33:56.951Z,16.90
2022-10-28T22:36:26.726Z,16.90
2022-10-28T22:38:54.084Z,16.90
2022-10-28T22:41:26.810Z,17.00
2022-10-28T22:43:56.468Z,17.00
2022-10-28T22:46:25.818Z,17.00
2022-10-28T22:48:53.502Z,17.00
2022-10-28T22:51:20.853Z,17.00
2022-10-28T22:53:49.411Z,17.00
2022-10-28T22:56:23.022Z,17.00
2022-10-28T22:58:58.291Z,17.00
2022-10-28T23:01:27.066Z,17.00
2022-10-28T23:03:55.359Z,17.00
2022-10-28T23:06:24.397Z,17.00
2022-10-28T23:08:51.867Z,17.00
2022-10-28T23:11:20.821Z,16.90
2022-10-28T23:13:51.609Z,17.00
2022-10-28T23:16:22.029Z,17.00
2022-10-28T23:18:49.672Z,17.00
2022-10-28T23:21:22.507Z,16.90
2022-10-28T23:23:57.016Z,16.90
2022-10-28T23:26:25.605Z,16.90
2022-10-28T23:28:55.569Z,16.90
2022-10-28T23:31:23.602Z,16.90
2022-10-28T23:33:52.370Z,16.80
2022-10-28T23:36:21.052Z,16.80
2022-10-28T23:38:48.381Z,16.70
2022-10-28T23:41:17.210Z,16.70
2022-10-28T23:43:45.122Z,16.70
2022-10-28T23:46:12.216Z,16.60
2022-10-28T23:48:41.773Z,16.60
2022-10-28T23:51:09.695Z,16.60
2022-10-28T23:53:39.056Z,16.50
2022-10-28T23:56:06.919Z,16.50
2022-10-28T23:58:36.708Z,16.50
